This is the latest recevied weather packets stored in our database for station/object OH6LSL. If no packets are shown the sender has not sent any weather packets the latest 10 day(s).
| Time | Temp. | Humidity | Pressure | Rain* | Wind** | Luminosity | Snow |
|---|---|---|---|---|---|---|---|
| 1777887274 | 10.56° C | 30% | 998.9 hPa | 0 mm | - | 246 W/m² | - |
| 1777886689 | 10.56° C | 30% | 999.2 hPa | 0 mm | - | 280 W/m² | - |
| 1777886090 | 10.56° C | 30% | 999.4 hPa | 0 mm | - | 301 W/m² | - |
| 1777885479 | 10.56° C | 33% | 999.4 hPa | 0 mm | - | 403 W/m² | - |
| 1777883710 | 10° C | 32% | 999.8 hPa | 0 mm | - | 343 W/m² | - |
| 1777882476 | 9.44° C | 34% | 1000.2 hPa | 0 mm | - | 222 W/m² | - |
| 1777880709 | 8.89° C | 35% | 1000.6 hPa | 0 mm | - | 153 W/m² | - |
| 1777878281 | 8.33° C | 37% | 1000.9 hPa | 0 mm | - | 88 W/m² | - |
| 1777875294 | 6.11° C | 51% | 1001.5 hPa | 0 mm | - | 107 W/m² | - |
| 1777872876 | 4.44° C | 54% | 1001.9 hPa | 0 mm | - | 62 W/m² | - |
| 1777872297 | 3.89° C | 55% | 1002.1 hPa | 0 mm | - | 56 W/m² | - |
| 1777871697 | 3.33° C | 55% | 1002.3 hPa | 0 mm | - | 40 W/m² | - |
| 1777868102 | 1.67° C | 54% | 1002.8 hPa | 0 mm | - | 40 W/m² | - |
| 1777866295 | 1.11° C | 53% | 1003.1 hPa | 0 mm | - | 56 W/m² | - |
| 1777864512 | 0.56° C | 53% | 1003.3 hPa | 0 mm | - | 51 W/m² | - |
| 1777863298 | 0° C | 55% | 1003.3 hPa | 0 mm | - | 21 W/m² | - |
| 1777861508 | 0° C | 55% | 1003.3 hPa | 0 mm | - | 16 W/m² | - |
| 1777860888 | 0° C | 56% | 1003.3 hPa | 0 mm | - | 11 W/m² | - |
| 1777860297 | 0° C | 56% | 1003.3 hPa | 0 mm | - | 7 W/m² | - |
| 1777859673 | 0° C | 56% | 1003.5 hPa | 0 mm | - | 5 W/m² | - |
| 1777859072 | 0° C | 58% | 1003.4 hPa | 0 mm | - | 0 W/m² | - |
| 1777854886 | 1.11° C | 64% | 1003.8 hPa | 0 mm | - | 0 W/m² | - |
| 1777851882 | 2.22° C | 65% | 1004 hPa | 0 mm | - | 0 W/m² | - |
| 1777851291 | 2.78° C | 65% | 1004 hPa | 0 mm | - | 0 W/m² | - |
| 1777849482 | 2.78° C | 64% | 1004 hPa | 0 mm | - | 0 W/m² | - |
* Rain latest hour (hover to see other rain measurements)
** Current wind speed in m/s (hover to see current wind gust speed)